Time;durP1;ratioP1;P1;durP2;ratioP2;P2;SDS_P1;SDS_P2;PMS_P1;PMS_P2;Temp;Humidity;BMP_temperature;BMP_pressure;BME280_temperature;BME280_humidity;BME280_pressure;Samples;Min_cycle;Max_cycle;Signal;HPM_P1;HPM_P2
2021/12/10 00:00:17;;;;;;;;;;;;;;;0.96;81.29;95583.28;30001;983;1872;-60
2021/12/10 00:00:57;;;;;;;;;;;;;;;0.93;81.82;95586.47;30001;983;1872;-59
2021/12/10 00:01:31;;;;;;;;;;;;;;;0.89;81.68;95577.38;30001;983;1886;-59
2021/12/10 00:02:07;;;;;;;;;;;;;;;0.87;82.06;95574.19;30001;983;1881;-60
2021/12/10 00:02:45;;;;;;;;;;;;;;;0.81;82.19;95576.03;30001;983;1886;-59
2021/12/10 00:03:19;;;;;;;;;;;;;;;0.78;82.68;95573.06;30001;983;1868;-61
2021/12/10 00:03:52;;;;;;;;;;;;;;;0.77;82.68;95580.28;30001;983;1877;-61
2021/12/10 00:04:29;;;;;;;;;;;;;;;0.78;82.63;95575.75;30001;982;1881;-62
2021/12/10 00:05:03;;;;;;;;;;;;;;;0.75;82.66;95576.28;30001;982;1873;-61
2021/12/10 00:05:40;;;;;;;;;;;;;;;0.74;82.75;95578.13;30001;982;1873;-62
2021/12/10 00:06:13;;;;;;;;;;;;;;;0.75;82.51;95573.59;30001;982;1886;-62
2021/12/10 00:06:47;;;;;;;;;;;;;;;0.73;82.89;95571.19;30001;983;1881;-62
2021/12/10 00:07:21;;;;;;;;;;;;;;;0.71;82.84;95569.84;30001;983;1885;-62
2021/12/10 00:07:51;;;;;;;;;;;;;;;0.69;83.36;95569.34;30001;983;1868;-61
2021/12/10 00:08:24;;;;;;;;;;;;;;;0.69;83.16;95572.00;30001;983;1864;-60
2021/12/10 00:08:59;;;;;;;;;;;;;;;0.70;83.04;95573.59;30001;983;1881;-62
2021/12/10 00:09:35;;;;;;;;;;;;;;;0.75;82.67;95573.59;30001;983;1886;-60
2021/12/10 00:10:09;;;;;;;;;;;;;;;0.75;82.47;95576.28;30001;983;1881;-61
2021/12/10 00:10:41;;;;;;;;;;;;;;;0.71;82.16;95561.84;30001;983;1886;-61
2021/12/10 00:11:16;;;;;;;;;;;;;;;0.68;82.37;95567.72;30001;983;1881;-61
2021/12/10 00:11:49;;;;;;;;;;;;;;;0.65;82.36;95572.53;30001;982;1886;-60
2021/12/10 00:12:23;;;;;;;;;;;;;;;0.63;82.69;95565.84;30001;982;1882;-61
2021/12/10 00:12:54;;;;;;;;;;;;;;;0.62;82.45;95562.38;30001;982;1886;-62
2021/12/10 00:13:26;;;;;;;;;;;;;;;0.60;82.46;95567.16;30001;982;1869;-61
2021/12/10 00:13:57;;;;;;;;;;;;;;;0.58;82.62;95561.28;30001;982;1877;-61
2021/12/10 00:14:31;;;;;;;;;;;;;;;0.56;82.96;95558.06;30001;983;1868;-60
2021/12/10 00:15:03;;;;;;;;;;;;;;;0.56;82.66;95558.06;30001;983;1877;-61
2021/12/10 00:15:36;;;;;;;;;;;;;;;0.55;82.69;95559.13;30001;983;1868;-62
2021/12/10 00:16:07;;;;;;;;;;;;;;;0.55;82.79;95556.47;30001;983;1877;-62
2021/12/10 00:16:40;;;;;;;;;;;;;;;0.54;82.89;95552.19;30001;976;1900;-61
2021/12/10 00:17:12;;;;;;;;;;;;;;;0.56;82.89;95550.06;30001;983;1886;-59
2021/12/10 00:17:43;;;;;;;;;;;;;;;0.59;82.63;95556.75;30001;983;1881;-61
2021/12/10 00:18:16;;;;;;;;;;;;;;;0.59;82.42;95544.22;30001;983;1886;-61
2021/12/10 00:18:55;;;;;;;;;;;;;;;0.54;82.34;95543.38;30001;983;1882;-61
2021/12/10 00:19:37;;;;;;;;;;;;;;;0.51;82.34;95549.25;30001;982;1886;-63
2021/12/10 00:20:11;;;;;;;;;;;;;;;0.54;82.75;95544.19;30001;982;1882;-61
2021/12/10 00:20:44;;;;;;;;;;;;;;;0.57;82.53;95543.66;30001;982;1873;-61
2021/12/10 00:21:16;;;;;;;;;;;;;;;0.56;82.45;95539.41;30001;982;1873;-60
2021/12/10 00:21:47;;;;;;;;;;;;;;;0.62;82.27;95545.56;30001;983;1885;-62
2021/12/10 00:22:25;;;;;;;;;;;;;;;0.60;82.02;95532.47;30001;983;1881;-62
2021/12/10 00:22:58;;;;;;;;;;;;;;;0.58;82.30;95539.94;30001;983;1885;-61
2021/12/10 00:23:30;;;;;;;;;;;;;;;0.55;82.30;95540.47;30001;983;1881;-61
2021/12/10 00:24:02;;;;;;;;;;;;;;;0.54;82.27;95544.19;30001;983;1886;-62
2021/12/10 00:24:34;;;;;;;;;;;;;;;0.60;82.76;95543.16;30001;983;1880;-62
2021/12/10 00:25:07;;;;;;;;;;;;;;;0.58;82.32;95534.59;30001;983;1885;-60
2021/12/10 00:25:40;;;;;;;;;;;;;;;0.57;82.42;95541.00;30001;983;1881;-61
2021/12/10 00:26:11;;;;;;;;;;;;;;;0.56;82.49;95536.72;30001;983;1873;-61
2021/12/10 00:26:43;;;;;;;;;;;;;;;0.55;82.48;95534.31;30001;983;1873;-61
2021/12/10 00:27:14;;;;;;;;;;;;;;;0.56;82.96;95535.91;30001;982;1886;-60
2021/12/10 00:27:46;;;;;;;;;;;;;;;0.56;82.66;95541.25;30001;982;1882;-62
2021/12/10 00:28:28;;;;;;;;;;;;;;;0.58;82.98;95534.59;30001;982;1873;-60
2021/12/10 00:29:03;;;;;;;;;;;;;;;0.57;82.72;95534.84;30001;982;1873;-61
2021/12/10 00:29:41;;;;;;;;;;;;;;;0.55;82.77;95523.62;30001;983;1885;-62
2021/12/10 00:30:25;;;;;;;;;;;;;;;0.52;82.80;95524.16;30001;983;1881;-62
2021/12/10 00:31:06;;;;;;;;;;;;;;;0.50;83.07;95524.44;30001;983;1886;-61
2021/12/10 00:31:45;;;;;;;;;;;;;;;0.49;82.84;95522.81;30001;983;1881;-61
2021/12/10 00:32:29;;;;;;;;;;;;;;;0.47;83.20;95532.94;30001;983;1885;-62
2021/12/10 00:33:11;;;;;;;;;;;;;;;0.42;82.99;95524.94;30001;983;1868;-61
2021/12/10 00:33:46;;;;;;;;;;;;;;;0.43;83.42;95515.84;30001;982;1877;-62
2021/12/10 00:34:23;;;;;;;;;;;;;;;0.46;83.48;95520.66;30001;982;1882;-61
2021/12/10 00:34:55;;;;;;;;;;;;;;;0.47;83.15;95522.28;30001;982;1886;-60
2021/12/10 00:35:28;;;;;;;;;;;;;;;0.46;82.82;95518.00;30001;982;1882;-62
2021/12/10 00:35:59;;;;;;;;;;;;;;;0.44;82.87;95522.81;30001;982;1886;-62
2021/12/10 00:36:30;;;;;;;;;;;;;;;0.43;83.17;95515.84;30001;982;1882;-62
2021/12/10 00:37:04;;;;;;;;;;;;;;;0.41;83.31;95522.53;30001;983;1885;-62
2021/12/10 00:37:36;;;;;;;;;;;;;;;0.39;83.05;95522.78;30001;983;1881;-61
2021/12/10 00:38:07;;;;;;;;;;;;;;;0.40;83.18;95516.38;30001;983;1872;-62
2021/12/10 00:38:37;;;;;;;;;;;;;;;0.40;83.29;95516.38;30001;983;1873;-61
2021/12/10 00:39:12;;;;;;;;;;;;;;;0.41;83.02;95517.97;30001;986;1886;-62
2021/12/10 00:39:45;;;;;;;;;;;;;;;0.41;83.22;95512.66;30001;983;1881;-62
2021/12/10 00:40:17;;;;;;;;;;;;;;;0.43;83.11;95518.53;30001;983;1873;-61
2021/12/10 00:40:49;;;;;;;;;;;;;;;0.43;83.11;95509.72;30001;983;1873;-61
2021/12/10 00:41:20;;;;;;;;;;;;;;;0.40;83.12;95511.03;30001;982;1886;-61
2021/12/10 00:41:52;;;;;;;;;;;;;;;0.41;82.91;95517.97;30001;982;1882;-62
2021/12/10 00:42:33;;;;;;;;;;;;;;;0.40;83.20;95510.25;30001;982;1886;-59
2021/12/10 00:43:08;;;;;;;;;;;;;;;0.40;83.08;95511.03;30001;982;1868;-61
2021/12/10 00:43:40;;;;;;;;;;;;;;;0.38;82.94;95507.84;30001;982;1878;-62
2021/12/10 00:44:11;;;;;;;;;;;;;;;0.37;82.89;95511.56;30001;982;1882;-62
2021/12/10 00:44:42;;;;;;;;;;;;;;;0.36;83.02;95504.63;30001;983;1885;-60
2021/12/10 00:45:15;;;;;;;;;;;;;;;0.32;82.84;95503.56;30001;983;1881;-61
2021/12/10 00:45:46;;;;;;;;;;;;;;;0.28;83.13;95502.47;30001;983;1886;-61
2021/12/10 00:46:17;;;;;;;;;;;;;;;0.24;83.16;95501.41;30001;983;1881;-60
2021/12/10 00:46:48;;;;;;;;;;;;;;;0.24;82.98;95506.72;30001;983;1885;-60
2021/12/10 00:47:19;;;;;;;;;;;;;;;0.25;83.22;95505.66;30001;983;1868;-59
2021/12/10 00:47:51;;;;;;;;;;;;;;;0.23;83.36;95500.59;30001;983;1877;-61
2021/12/10 00:48:22;;;;;;;;;;;;;;;0.20;83.25;95501.12;30001;983;1882;-61
2021/12/10 00:48:52;;;;;;;;;;;;;;;0.20;83.08;95501.12;30001;982;1873;-61
2021/12/10 00:49:24;;;;;;;;;;;;;;;0.20;83.29;95494.97;30001;982;1873;-61
2021/12/10 00:49:54;;;;;;;;;;;;;;;0.20;83.29;95494.97;30001;982;1886;-61
2021/12/10 00:50:27;;;;;;;;;;;;;;;0.19;83.48;95496.03;30001;982;1882;-62
2021/12/10 00:50:59;;;;;;;;;;;;;;;0.21;83.22;95496.59;30001;982;1886;-61
2021/12/10 00:51:30;;;;;;;;;;;;;;;0.23;83.47;95497.94;30001;983;1881;-56
2021/12/10 00:52:02;;;;;;;;;;;;;;;0.25;83.22;95487.00;30001;983;1885;-61
2021/12/10 00:52:34;;;;;;;;;;;;;;;0.24;82.98;95488.06;30001;983;1881;-61
2021/12/10 00:53:05;;;;;;;;;;;;;;;0.23;83.06;95484.59;30001;983;1886;-61
2021/12/10 00:53:36;;;;;;;;;;;;;;;0.23;82.77;95491.78;30001;983;1881;-59
2021/12/10 00:54:09;;;;;;;;;;;;;;;0.20;82.79;95484.31;30001;983;1873;-62
2021/12/10 00:54:40;;;;;;;;;;;;;;;0.25;82.88;95485.12;30001;983;1872;-60
2021/12/10 00:55:11;;;;;;;;;;;;;;;0.25;82.83;95481.66;30001;983;1886;-62
2021/12/10 00:55:42;;;;;;;;;;;;;;;0.24;82.89;95480.87;30001;983;1882;-62
2021/12/10 00:56:13;;;;;;;;;;;;;;;0.19;82.61;95478.16;30001;982;1886;-59
2021/12/10 00:56:45;;;;;;;;;;;;;;;0.16;82.67;95477.88;30001;982;1882;-62
2021/12/10 00:57:16;;;;;;;;;;;;;;;0.16;82.71;95484.03;30001;982;1886;-61
2021/12/10 00:57:47;;;;;;;;;;;;;;;0.17;83.11;95482.16;30001;982;1882;-62
2021/12/10 00:58:19;;;;;;;;;;;;;;;0.20;83.21;95484.31;30001;982;1886;-61
2021/12/10 00:58:49;;;;;;;;;;;;;;;0.20;83.27;95478.97;30001;983;1881;-60
2021/12/10 00:59:20;;;;;;;;;;;;;;;0.19;83.27;95480.03;30001;983;1872;-60
2021/12/10 00:59:52;;;;;;;;;;;;;;;0.18;83.19;95476.56;30001;983;1872;-60
2021/12/10 01:00:35;;;;;;;;;;;;;;;0.18;83.01;95476.56;30001;983;1885;-61
2021/12/10 01:01:08;;;;;;;;;;;;;;;0.19;82.81;95474.69;30001;983;1881;-60
2021/12/10 01:01:40;;;;;;;;;;;;;;;0.20;82.88;95473.63;30001;983;1885;-61
2021/12/10 01:02:13;;;;;;;;;;;;;;;0.20;82.69;95478.97;30001;983;1881;-61
2021/12/10 01:02:45;;;;;;;;;;;;;;;0.18;83.16;95481.91;30001;983;1886;-60
2021/12/10 01:03:18;;;;;;;;;;;;;;;0.16;82.96;95472.56;30001;983;1881;-61
2021/12/10 01:03:54;;;;;;;;;;;;;;;0.14;83.04;95477.34;30001;982;1886;-61
2021/12/10 01:04:27;;;;;;;;;;;;;;;0.13;83.38;95478.41;30001;982;1868;-62
2021/12/10 01:04:58;;;;;;;;;;;;;;;0.11;83.33;95468.00;30001;982;1877;-62
2021/12/10 01:05:30;;;;;;;;;;;;;;;0.11;83.35;95470.66;30001;982;1882;-62
2021/12/10 01:06:03;;;;;;;;;;;;;;;0.11;83.40;95472.53;30001;982;1886;-61
2021/12/10 01:06:35;;;;;;;;;;;;;;;0.11;83.16;95472.53;30001;983;1881;-61
2021/12/10 01:07:11;;;;;;;;;;;;;;;0.10;83.28;95469.06;30001;983;1885;-62
2021/12/10 01:07:43;;;;;;;;;;;;;;;0.10;83.03;95465.59;30001;983;1868;-60
2021/12/10 01:08:14;;;;;;;;;;;;;;;0.10;83.11;95462.94;30001;983;1877;-61
2021/12/10 01:08:46;;;;;;;;;;;;;;;0.10;83.29;95468.25;30001;983;1881;-56
2021/12/10 01:09:20;;;;;;;;;;;;;;;0.10;83.42;95462.94;30001;983;1885;-61
2021/12/10 01:09:52;;;;;;;;;;;;;;;0.10;83.13;95462.94;30001;983;1881;-56
2021/12/10 01:10:31;;;;;;;;;;;;;;;0.08;83.48;95463.19;30001;983;1886;-61
2021/12/10 01:11:08;;;;;;;;;;;;;;;0.08;83.23;95463.19;30001;983;1864;-61
2021/12/10 01:11:42;;;;;;;;;;;;;;;0.08;83.33;95462.38;30001;982;1877;-61
2021/12/10 01:12:15;;;;;;;;;;;;;;;0.09;83.33;95461.31;30001;982;1882;-60
2021/12/10 01:12:48;;;;;;;;;;;;;;;0.10;83.28;95457.59;30001;982;1873;-61
2021/12/10 01:13:26;;;;;;;;;;;;;;;0.10;83.40;95457.59;30001;982;1873;-61
2021/12/10 01:14:08;;;;;;;;;;;;;;;0.09;83.35;95456.00;30001;983;1885;-61
2021/12/10 01:15:07;;;;;;;;;;;;;;;0.07;82.71;95456.25;30001;983;1881;-61
2021/12/10 01:15:55;;;;;;;;;;;;;;;0.07;83.15;95447.44;30001;983;1886;-61
2021/12/10 01:23:54;;;;;;;;;;;;;;;0.20;81.61;95446.97;30001;983;1881;-60
2021/12/10 01:24:52;;;;;;;;;;;;;;;0.21;81.43;95448.56;30001;983;1886;-61
2021/12/10 01:25:36;;;;;;;;;;;;;;;0.19;81.27;95448.84;30001;983;1881;-61
2021/12/10 01:26:22;;;;;;;;;;;;;;;0.19;81.44;95450.69;30001;982;1886;-56
2021/12/10 01:26:56;;;;;;;;;;;;;;;0.15;81.32;95449.63;30001;982;1869;-60
2021/12/10 01:27:33;;;;;;;;;;;;;;;0.13;81.59;95441.88;30001;982;1877;-61
2021/12/10 01:28:05;;;;;;;;;;;;;;;0.09;81.60;95442.66;30001;982;1882;-61
2021/12/10 01:28:40;;;;;;;;;;;;;;;0.08;81.90;95443.72;30001;982;1886;-61
2021/12/10 01:29:11;;;;;;;;;;;;;;;0.07;81.72;95445.59;30001;983;1881;-61
2021/12/10 01:29:44;;;;;;;;;;;;;;;0.05;81.71;95441.56;30001;983;1872;-62
2021/12/10 01:30:35;;;;;;;;;;;;;;;0.04;81.90;95439.97;30001;983;1872;-62
2021/12/10 01:31:06;;;;;;;;;;;;;;;0.00;81.93;95434.38;30001;983;1885;-62
2021/12/10 01:31:37;;;;;;;;;;;;;;;0.00;81.98;95437.81;30001;983;1881;-62
2021/12/10 01:32:10;;;;;;;;;;;;;;;0.00;82.40;95437.06;30001;983;1886;-62
2021/12/10 01:32:43;;;;;;;;;;;;;;;-0.04;81.99;95434.09;30001;983;1881;-60
2021/12/10 01:33:16;;;;;;;;;;;;;;;-0.04;82.37;95436.75;30001;982;1886;-61
2021/12/10 01:33:49;;;;;;;;;;;;;;;-0.04;82.11;95428.78;30001;982;1881;-61
2021/12/10 01:34:21;;;;;;;;;;;;;;;-0.04;82.23;95431.44;30001;982;1886;-61
2021/12/10 01:34:52;;;;;;;;;;;;;;;-0.03;82.35;95426.91;30001;982;1869;-61
2021/12/10 01:35:29;;;;;;;;;;;;;;;-0.05;82.48;95427.16;30001;982;1877;-60
2021/12/10 01:36:06;;;;;;;;;;;;;;;-0.02;82.43;95428.50;30001;982;1882;-61
2021/12/10 01:36:37;;;;;;;;;;;;;;;-0.02;82.18;95429.31;30001;983;1885;-61
2021/12/10 01:37:09;;;;;;;;;;;;;;;-0.03;82.15;95427.69;30001;983;1881;-61
2021/12/10 01:37:40;;;;;;;;;;;;;;;-0.01;82.38;95425.56;30001;983;1885;-60
2021/12/10 01:38:11;;;;;;;;;;;;;;;0.03;81.92;95425.03;30001;983;1881;-61
2021/12/10 01:38:43;;;;;;;;;;;;;;;0.03;81.81;95428.50;30001;983;1886;-62
2021/12/10 01:39:17;;;;;;;;;;;;;;;0.02;81.90;95424.22;30001;983;1868;-61
2021/12/10 01:39:48;;;;;;;;;;;;;;;0.00;81.89;95421.81;30001;983;1877;-61
2021/12/10 01:40:26;;;;;;;;;;;;;;;0.00;82.18;95423.72;30001;983;1882;-61
2021/12/10 01:40:59;;;;;;;;;;;;;;;-0.01;82.36;95414.91;30001;982;1886;-61
2021/12/10 01:41:35;;;;;;;;;;;;;;;-0.01;81.98;95419.44;30001;982;1882;-60
2021/12/10 01:42:30;;;;;;;;;;;;;;;-0.03;82.44;95414.38;30001;982;1886;-62
2021/12/10 01:43:07;;;;;;;;;;;;;;;0.02;81.63;95418.91;30001;982;1882;-61
2021/12/10 01:43:39;;;;;;;;;;;;;;;0.01;81.26;95411.97;30001;982;1873;-62
2021/12/10 01:44:26;;;;;;;;;;;;;;;0.00;81.15;95400.50;30001;983;1872;-62
2021/12/10 01:44:58;;;;;;;;;;;;;;;0.00;81.64;95408.50;30001;983;1886;-62
2021/12/10 01:45:31;;;;;;;;;;;;;;;0.02;81.21;95402.09;30001;983;1881;-62
2021/12/10 01:46:10;;;;;;;;;;;;;;;0.00;81.17;95407.72;30001;983;1885;-62
2021/12/10 01:46:41;;;;;;;;;;;;;;;-0.03;81.06;95403.72;30001;983;1881;-61
2021/12/10 01:47:14;;;;;;;;;;;;;;;-0.05;81.56;95403.16;30001;983;1886;-61
2021/12/10 01:47:47;;;;;;;;;;;;;;;0.03;81.06;95399.16;30001;983;1881;-60
2021/12/10 01:48:20;;;;;;;;;;;;;;;0.05;80.76;95396.25;30001;982;1886;-60
2021/12/10 01:48:53;;;;;;;;;;;;;;;0.09;80.78;95397.31;30001;982;1868;-61
2021/12/10 01:49:24;;;;;;;;;;;;;;;0.11;80.43;95397.84;30001;982;1877;-61
2021/12/10 01:49:56;;;;;;;;;;;;;;;0.11;80.04;95395.19;30001;982;1882;-59
2021/12/10 01:50:27;;;;;;;;;;;;;;;0.12;80.51;95391.47;30001;982;1886;-60
2021/12/10 01:51:01;;;;;;;;;;;;;;;0.12;80.38;95391.47;30001;982;1882;-60
2021/12/10 01:51:33;;;;;;;;;;;;;;;0.12;80.38;95391.47;30001;983;1885;-61
2021/12/10 01:52:06;;;;;;;;;;;;;;;0.10;80.31;95393.59;30001;983;1881;-60
2021/12/10 01:52:38;;;;;;;;;;;;;;;0.13;80.13;95382.41;30001;983;1886;-60
2021/12/10 01:53:10;;;;;;;;;;;;;;;0.11;79.98;95385.31;30001;983;1868;-61
2021/12/10 01:53:41;;;;;;;;;;;;;;;0.12;80.42;95386.12;30001;983;1877;-62
2021/12/10 01:54:18;;;;;;;;;;;;;;;0.11;80.48;95384.53;30001;983;1868;-57
2021/12/10 01:54:51;;;;;;;;;;;;;;;0.13;80.13;95387.72;30001;983;1877;-61
2021/12/10 01:55:24;;;;;;;;;;;;;;;0.13;79.74;95377.06;30001;983;1881;-59
2021/12/10 01:55:57;;;;;;;;;;;;;;;0.14;79.78;95374.13;30001;982;1886;-60
2021/12/10 01:56:29;;;;;;;;;;;;;;;0.18;79.64;95375.22;30001;982;1881;-60
2021/12/10 01:57:02;;;;;;;;;;;;;;;0.18;79.76;95374.41;30001;982;1886;-61
2021/12/10 01:57:35;;;;;;;;;;;;;;;0.21;79.34;95379.22;30001;982;1882;-61
2021/12/10 01:58:09;;;;;;;;;;;;;;;0.18;79.49;95369.88;30001;982;1886;-62
2021/12/10 01:58:41;;;;;;;;;;;;;;;0.17;79.26;95367.47;30001;983;1881;-60
2021/12/10 01:59:13;;;;;;;;;;;;;;;0.19;79.26;95370.69;30001;983;1885;-61
2021/12/10 01:59:45;;;;;;;;;;;;;;;0.16;79.49;95371.19;30001;983;1868;-61
2021/12/10 02:00:18;;;;;;;;;;;;;;;0.14;79.64;95362.66;30001;983;1877;-60
2021/12/10 02:00:53;;;;;;;;;;;;;;;0.12;79.35;95364.78;30001;983;1881;-61
2021/12/10 02:01:32;;;;;;;;;;;;;;;0.11;79.63;95366.66;30001;987;1886;-62
2021/12/10 02:02:09;;;;;;;;;;;;;;;0.13;79.26;95369.06;30001;983;1881;-61
2021/12/10 02:02:42;;;;;;;;;;;;;;;0.14;79.36;95360.78;30001;983;1886;-61
2021/12/10 02:03:13;;;;;;;;;;;;;;;0.12;79.16;95364.78;30001;982;1882;-61
2021/12/10 02:03:45;;;;;;;;;;;;;;;0.10;79.49;95362.38;30001;982;1886;-60
2021/12/10 02:04:19;;;;;;;;;;;;;;;0.09;79.63;95362.66;30001;982;1882;-61
2021/12/10 02:04:51;;;;;;;;;;;;;;;0.07;79.46;95362.09;30001;982;1873;-62
2021/12/10 02:05:22;;;;;;;;;;;;;;;0.04;79.69;95357.28;30001;982;1873;-62
2021/12/10 02:05:53;;;;;;;;;;;;;;;0.00;79.96;95363.16;30001;983;1885;-61
2021/12/10 02:06:24;;;;;;;;;;;;;;;-0.05;79.90;95360.50;30001;983;1881;-61
2021/12/10 02:06:55;;;;;;;;;;;;;;;-0.07;79.91;95348.50;30001;983;1872;-60
2021/12/10 02:07:26;;;;;;;;;;;;;;;-0.08;80.04;95357.56;30001;983;1872;-60
2021/12/10 02:07:58;;;;;;;;;;;;;;;-0.08;80.45;95361.03;30001;983;1885;-63
2021/12/10 02:08:29;;;;;;;;;;;;;;;-0.05;79.78;95355.16;30001;983;1868;-60
2021/12/10 02:09:00;;;;;;;;;;;;;;;-0.04;79.34;95348.78;30001;983;1877;-61
2021/12/10 02:09:31;;;;;;;;;;;;;;;-0.05;79.30;95355.16;30001;983;1881;-60
2021/12/10 02:10:04;;;;;;;;;;;;;;;-0.03;79.42;95355.72;30001;983;1873;-62
2021/12/10 02:10:35;;;;;;;;;;;;;;;0.00;79.44;95352.50;30001;983;1873;-60
2021/12/10 02:11:07;;;;;;;;;;;;;;;0.04;79.04;95350.09;30001;982;1886;-61
2021/12/10 02:11:38;;;;;;;;;;;;;;;0.04;78.90;95349.31;30001;982;1882;-62
2021/12/10 02:12:10;;;;;;;;;;;;;;;0.03;78.61;95345.03;30001;982;1886;-61
2021/12/10 02:12:40;;;;;;;;;;;;;;;0.02;78.79;95348.75;30001;982;1882;-62
2021/12/10 02:13:12;;;;;;;;;;;;;;;-0.02;79.01;95338.66;30001;982;1886;-61
2021/12/10 02:13:44;;;;;;;;;;;;;;;-0.07;79.19;95346.63;30001;983;1881;-61
2021/12/10 02:14:15;;;;;;;;;;;;;;;-0.09;79.52;95338.09;30001;983;1885;-61
2021/12/10 02:14:51;;;;;;;;;;;;;;;-0.06;79.50;95340.25;30001;983;1868;-60
2021/12/10 02:15:26;;;;;;;;;;;;;;;-0.07;79.29;95341.31;30001;983;1877;-61
2021/12/10 02:16:00;;;;;;;;;;;;;;;-0.07;79.68;95335.16;30001;983;1882;-57
2021/12/10 02:16:31;;;;;;;;;;;;;;;-0.06;79.36;95332.25;30002;983;1873;-56
2021/12/10 02:17:02;;;;;;;;;;;;;;;-0.06;79.41;95334.91;30002;983;1873;-58
2021/12/10 02:17:36;;;;;;;;;;;;;;;-0.06;79.35;95331.44;30002;983;1886;-58
2021/12/10 02:18:10;;;;;;;;;;;;;;;-0.04;79.63;95334.66;30002;983;1882;-56
2021/12/10 02:18:41;;;;;;;;;;;;;;;-0.03;79.43;95331.72;30002;982;1886;-60
2021/12/10 02:19:12;;;;;;;;;;;;;;;-0.04;79.46;95337.31;30001;982;1869;-61
2021/12/10 02:19:43;;;;;;;;;;;;;;;-0.06;79.30;95332.25;30002;982;1877;-61
2021/12/10 02:20:19;;;;;;;;;;;;;;;-0.07;79.47;95327.97;30002;982;1882;-60
2021/12/10 02:21:12;;;;;;;;;;;;;;;-0.06;79.57;95331.44;30002;983;1885;-57
2021/12/10 02:21:44;;;;;;;;;;;;;;;-0.06;79.99;95331.44;30002;983;1881;-60
2021/12/10 02:22:14;;;;;;;;;;;;;;;-0.04;79.60;95324.78;30002;983;1885;-58
2021/12/10 02:22:47;;;;;;;;;;;;;;;-0.02;79.12;95322.66;30002;983;1881;-56
2021/12/10 02:23:18;;;;;;;;;;;;;;;-0.01;79.55;95318.91;30002;983;1886;-60
2021/12/10 02:23:56;;;;;;;;;;;;;;;-0.02;79.08;95317.31;30002;983;1881;-59
2021/12/10 02:24:27;;;;;;;;;;;;;;;-0.04;79.15;95318.66;30002;983;1872;-59
2021/12/10 02:24:58;;;;;;;;;;;;;;;-0.04;79.08;95316.78;30002;983;1873;-56
2021/12/10 02:25:29;;;;;;;;;;;;;;;-0.05;79.39;95319.72;30002;983;1886;-57
2021/12/10 02:26:01;;;;;;;;;;;;;;;-0.08;79.22;95317.56;30002;982;1882;-60
2021/12/10 02:26:34;;;;;;;;;;;;;;;-0.09;79.71;95314.09;30002;982;1886;-57
2021/12/10 02:27:06;;;;;;;;;;;;;;;-0.10;79.49;95320.50;30002;982;1869;-61
2021/12/10 02:27:38;;;;;;;;;;;;;;;-0.08;79.54;95312.22;30002;982;1877;-57
2021/12/10 02:28:10;;;;;;;;;;;;;;;-0.09;79.22;95314.09;30002;982;1882;-56
2021/12/10 02:28:42;;;;;;;;;;;;;;;-0.11;79.32;95313.56;30002;983;1885;-60
2021/12/10 02:29:15;;;;;;;;;;;;;;;-0.11;79.37;95308.22;30002;983;1881;-57
2021/12/10 02:29:46;;;;;;;;;;;;;;;-0.12;79.21;95305.81;30002;983;1885;-60
2021/12/10 02:30:18;;;;;;;;;;;;;;;-0.13;79.26;95310.34;30002;983;1868;-61
2021/12/10 02:30:49;;;;;;;;;;;;;;;-0.15;79.44;95306.34;30002;983;1877;-61
2021/12/10 02:31:21;;;;;;;;;;;;;;;-0.16;79.28;95302.88;30002;983;1881;-57
2021/12/10 02:31:53;;;;;;;;;;;;;;;-0.11;79.33;95297.56;30002;983;1886;-57
2021/12/10 02:32:26;;;;;;;;;;;;;;;-0.10;79.36;95303.69;30002;983;1881;-60
2021/12/10 02:32:58;;;;;;;;;;;;;;;-0.12;79.38;95301.28;30002;982;1886;-61
2021/12/10 02:33:29;;;;;;;;;;;;;;;-0.14;79.05;95303.41;30002;982;1881;-61
2021/12/10 02:34:02;;;;;;;;;;;;;;;-0.14;79.43;95297.28;30002;982;1886;-57
2021/12/10 02:34:33;;;;;;;;;;;;;;;-0.13;79.23;95305.03;30002;982;1882;-60
2021/12/10 02:35:05;;;;;;;;;;;;;;;-0.15;78.95;95311.69;30002;982;1873;-60
2021/12/10 02:35:37;;;;;;;;;;;;;;;-0.17;79.26;95309.28;30002;982;1873;-60
2021/12/10 02:36:11;;;;;;;;;;;;;;;-0.19;79.17;95306.06;30002;983;1885;-56
2021/12/10 02:36:43;;;;;;;;;;;;;;;-0.18;79.14;95312.22;30002;983;1881;-60
2021/12/10 02:37:14;;;;;;;;;;;;;;;-0.24;79.49;95303.41;30002;983;1767;-61
2021/12/10 02:37:45;;;;;;;;;;;;;;;-0.28;79.57;95299.66;30002;983;1872;-61
2021/12/10 02:38:18;;;;;;;;;;;;;;;-0.28;79.86;95307.66;30002;983;1886;-57
2021/12/10 02:38:51;;;;;;;;;;;;;;;-0.31;79.79;95297.50;30002;983;1881;-60
2021/12/10 02:39:23;;;;;;;;;;;;;;;-0.33;80.02;95299.63;30002;983;1886;-57
2021/12/10 02:39:54;;;;;;;;;;;;;;;-0.35;79.95;95296.47;30002;983;1881;-57
2021/12/10 02:40:29;;;;;;;;;;;;;;;-0.34;80.12;95292.69;30002;982;1886;-58
2021/12/10 02:41:00;;;;;;;;;;;;;;;-0.34;80.50;95292.69;30002;982;1882;-61
2021/12/10 02:41:31;;;;;;;;;;;;;;;-0.35;80.34;95296.47;30002;982;1886;-61
2021/12/10 02:42:03;;;;;;;;;;;;;;;-0.37;80.47;95288.72;30002;982;1882;-57
2021/12/10 02:42:34;;;;;;;;;;;;;;;-0.39;80.88;95290.06;30002;982;1873;-61
2021/12/10 02:43:08;;;;;;;;;;;;;;;-0.41;80.76;95276.19;30002;982;1873;-57
2021/12/10 02:43:39;;;;;;;;;;;;;;;-0.40;81.11;95277.78;30002;983;1885;-57
2021/12/10 02:44:12;;;;;;;;;;;;;;;-0.35;80.63;95275.13;30002;983;1881;-61
2021/12/10 02:44:43;;;;;;;;;;;;;;;-0.36;80.40;95273.53;30002;983;1885;-61
2021/12/10 02:45:18;;;;;;;;;;;;;;;-0.36;80.48;95270.88;30002;983;1881;-60
2021/12/10 02:45:55;;;;;;;;;;;;;;;-0.35;80.63;95275.13;30002;983;1873;-57
2021/12/10 02:46:26;;;;;;;;;;;;;;;-0.33;80.42;95262.31;30002;983;1859;-60
2021/12/10 02:46:58;;;;;;;;;;;;;;;-0.31;80.42;95260.19;30002;983;1886;-60
2021/12/10 02:47:29;;;;;;;;;;;;;;;-0.29;80.33;95258.06;30002;983;1881;-56
2021/12/10 02:48:00;;;;;;;;;;;;;;;-0.28;80.25;95259.66;30002;982;1873;-57
2021/12/10 02:48:34;;;;;;;;;;;;;;;-0.30;79.92;95264.47;30002;982;1873;-61
2021/12/10 02:49:06;;;;;;;;;;;;;;;-0.31;79.98;95257.53;30002;982;1886;-60
2021/12/10 02:49:37;;;;;;;;;;;;;;;-0.32;80.23;95258.59;30002;982;1882;-61
2021/12/10 02:50:11;;;;;;;;;;;;;;;-0.32;80.61;95263.94;30002;982;1886;-62
2021/12/10 02:50:43;;;;;;;;;;;;;;;-0.32;80.25;95258.59;30002;983;1881;-57
2021/12/10 02:51:15;;;;;;;;;;;;;;;-0.33;80.56;95257.00;30002;983;1885;-57
2021/12/10 02:51:46;;;;;;;;;;;;;;;-0.34;80.27;95263.38;30002;983;1881;-61
2021/12/10 02:52:19;;;;;;;;;;;;;;;-0.34;80.51;95266.06;30002;983;1886;-57
2021/12/10 02:52:50;;;;;;;;;;;;;;;-0.37;80.54;95263.94;30002;983;1868;-60
2021/12/10 02:53:27;;;;;;;;;;;;;;;-0.39;80.61;95261.53;30002;983;1877;-56
2021/12/10 02:53:58;;;;;;;;;;;;;;;-0.41;80.72;95261.00;30002;983;1881;-56
2021/12/10 02:54:34;;;;;;;;;;;;;;;-0.43;80.74;95262.31;30002;983;1886;-57
2021/12/10 02:55:10;;;;;;;;;;;;;;;-0.45;80.50;95261.78;30002;983;1882;-62
2021/12/10 02:55:41;;;;;;;;;;;;;;;-0.46;81.05;95262.84;30002;982;1886;-57
2021/12/10 02:56:14;;;;;;;;;;;;;;;-0.48;81.17;95262.31;30002;982;1881;-61
2021/12/10 02:56:45;;;;;;;;;;;;;;;-0.49;81.31;95263.38;30002;982;1873;-62
2021/12/10 02:57:17;;;;;;;;;;;;;;;-0.51;81.46;95257.50;30002;982;1860;-57
2021/12/10 02:57:50;;;;;;;;;;;;;;;-0.49;81.36;95250.03;30002;983;1885;-57
2021/12/10 02:58:23;;;;;;;;;;;;;;;-0.47;80.78;95250.59;30002;983;1881;-61
2021/12/10 02:58:58;;;;;;;;;;;;;;;-0.44;80.94;95252.72;30002;983;1885;-57
2021/12/10 02:59:29;;;;;;;;;;;;;;;-0.41;80.53;95254.88;30002;983;1881;-57
2021/12/10 03:00:00;;;;;;;;;;;;;;;-0.43;80.37;95251.66;30002;983;1886;-61
2021/12/10 03:00:34;;;;;;;;;;;;;;;-0.48;80.23;95249.78;30002;983;1881;-56
2021/12/10 03:01:07;;;;;;;;;;;;;;;-0.52;80.71;95247.91;30002;983;1886;-62
2021/12/10 03:01:43;;;;;;;;;;;;;;;-0.51;80.73;95244.97;30002;983;1881;-57
2021/12/10 03:02:16;;;;;;;;;;;;;;;-0.52;80.76;95246.03;30002;983;1886;-57
2021/12/10 03:02:47;;;;;;;;;;;;;;;-0.54;80.47;95244.72;30002;982;1868;-62
2021/12/10 03:03:18;;;;;;;;;;;;;;;-0.55;80.87;95237.78;30002;982;1877;-61
2021/12/10 03:03:49;;;;;;;;;;;;;;;-0.56;80.74;95233.50;30002;982;1881;-56
2021/12/10 03:04:20;;;;;;;;;;;;;;;-0.55;81.11;95238.56;30002;982;1886;-62
2021/12/10 03:04:51;;;;;;;;;;;;;;;-0.54;80.69;95234.84;30002;982;1882;-62
2021/12/10 03:05:23;;;;;;;;;;;;;;;-0.55;80.47;95235.09;30002;983;1872;-57
2021/12/10 03:05:55;;;;;;;;;;;;;;;-0.55;80.46;95232.44;30002;983;1872;-58
2021/12/10 03:06:27;;;;;;;;;;;;;;;-0.50;80.65;95243.13;30001;983;1885;-59
2021/12/10 03:07:00;;;;;;;;;;;;;;;-0.49;80.17;95232.19;30001;983;1881;-61
2021/12/10 03:07:31;;;;;;;;;;;;;;;-0.47;80.55;95234.59;30001;983;1872;-57
2021/12/10 03:08:02;;;;;;;;;;;;;;;-0.46;80.30;95238.88;30002;983;1873;-57